Main page
METAR-TAF:

METAR-TAF

Airports :

Charles de Gaulle Airport

Paris-Charles De Gaulle, France

latitude: 49-01N, longitude: 002-32E, elevation: 118 m

Current weather observation

The report was made 38 minutes ago, at 20:30 UTC
Wind 8 kt from the Northeast
Temperature 18°C
Humidity 37%
Pressure 1023 hPa
Visibility 10 km or more
no clouds below 1500 m and no cumulonimbus

METAR: LFPG 092030Z AUTO 04008KT CAVOK 18/03 Q1023 NOSIG

Time: 23:08 (21:08 UTC)

Forecast

The report was made 4 hours and 8 minutes ago, at 17:00 UTC
Forecast valid from 09 at 18 UTC to 10 at 24 UTC
Wind 8 kt from the East
Visibility 10 km or more
no clouds below 1500 m and no cumulonimbus

TAF: LFPG 091700Z 0918/1024 08008KT CAVOK TX24/1015Z TN11/1006Z

Weather observations and forecasts of more than 4000 airports (METAR and TAF reports).

The available stations are represented by yellow and red dots on the map.

Hover mouse over dot to see the name of the station.

Then click to see weather observations and forecasts.

To change the map : click on the green buttons with a black cross to zoom in, on the green button with a dash to zoom out, or on the green arrows for adjacent maps.


METAR-TAF: